createdAt,value
2022-12-19T00:00:24.193Z,92.10
2022-12-19T00:01:24.246Z,99.60
2022-12-19T00:02:24.483Z,98.10
2022-12-19T00:03:24.315Z,97.50
2022-12-19T00:04:24.145Z,93.10
2022-12-19T00:05:24.635Z,95.70
2022-12-19T00:06:24.139Z,96.80
2022-12-19T00:07:24.146Z,97.00
2022-12-19T00:08:24.108Z,95.20
2022-12-19T00:09:24.097Z,98.80
2022-12-19T00:10:24.086Z,97.30
2022-12-19T00:11:24.078Z,94.50
2022-12-19T00:12:24.086Z,97.50
2022-12-19T00:13:24.069Z,97.10
2022-12-19T00:14:24.067Z,97.80
2022-12-19T00:15:24.053Z,97.40
2022-12-19T00:16:24.088Z,99.00
2022-12-19T00:17:24.069Z,98.90
2022-12-19T00:18:24.009Z,105.10
2022-12-19T00:19:24.008Z,100.80
2022-12-19T00:20:23.988Z,100.20
2022-12-19T00:21:24.009Z,97.90
2022-12-19T00:22:23.997Z,98.50
2022-12-19T00:23:24.010Z,97.70
2022-12-19T00:24:23.950Z,97.20
2022-12-19T00:25:23.950Z,95.70
2022-12-19T00:26:23.929Z,103.50
2022-12-19T00:27:23.942Z,96.90
2022-12-19T00:28:23.927Z,103.50
2022-12-19T00:29:23.939Z,100.00
2022-12-19T00:30:23.904Z,99.30
2022-12-19T00:31:23.899Z,101.10
2022-12-19T00:32:23.904Z,98.70
2022-12-19T00:33:23.879Z,104.00
2022-12-19T00:34:23.895Z,100.90
2022-12-19T00:35:23.841Z,96.00
2022-12-19T00:36:23.841Z,98.70
2022-12-19T00:37:23.842Z,94.90
2022-12-19T00:38:23.823Z,95.10
2022-12-19T00:39:23.811Z,92.10
2022-12-19T00:40:23.801Z,93.60
2022-12-19T00:41:23.792Z,93.10
2022-12-19T00:42:23.792Z,94.70
2022-12-19T00:43:23.770Z,94.10
2022-12-19T00:44:23.755Z,93.80
2022-12-19T00:45:23.874Z,87.80
2022-12-19T00:46:23.778Z,98.90
2022-12-19T00:47:23.744Z,98.70
2022-12-19T00:48:23.715Z,96.50
2022-12-19T00:49:23.715Z,96.80
2022-12-19T00:50:23.695Z,95.80
2022-12-19T00:51:23.685Z,94.20
2022-12-19T00:52:23.695Z,98.50
2022-12-19T00:53:23.666Z,101.50
2022-12-19T00:54:23.685Z,95.30
2022-12-19T00:55:23.739Z,98.80
2022-12-19T00:56:23.661Z,100.70
2022-12-19T00:57:23.656Z,99.20
2022-12-19T00:58:23.625Z,96.70
2022-12-19T00:59:26.381Z,95.00
2022-12-19T01:00:23.597Z,99.90
2022-12-19T01:01:23.757Z,97.80
2022-12-19T01:02:23.703Z,99.60
2022-12-19T01:03:23.576Z,100.10
2022-12-19T01:04:28.630Z,95.30
2022-12-19T01:05:24.557Z,95.70
2022-12-19T01:06:23.547Z,100.60
2022-12-19T01:07:23.591Z,94.10
2022-12-19T01:08:23.528Z,96.10
2022-12-19T01:09:23.520Z,95.10
2022-12-19T01:10:23.519Z,96.40
2022-12-19T01:11:23.501Z,97.80
2022-12-19T01:12:24.548Z,105.90
2022-12-19T01:13:23.489Z,95.60
2022-12-19T01:14:23.513Z,96.60
2022-12-19T01:15:23.461Z,101.80
2022-12-19T01:16:23.500Z,98.40
2022-12-19T01:17:23.452Z,96.80
2022-12-19T01:18:23.430Z,102.50
2022-12-19T01:19:23.439Z,102.40
2022-12-19T01:20:29.621Z,103.60
2022-12-19T01:21:24.495Z,102.70
2022-12-19T01:22:23.410Z,97.90
2022-12-19T01:23:23.383Z,99.60
2022-12-19T01:24:23.362Z,107.80
2022-12-19T01:25:23.365Z,98.50
2022-12-19T01:26:23.343Z,103.90
2022-12-19T01:27:23.354Z,103.90
2022-12-19T01:28:23.324Z,104.20
2022-12-19T01:29:23.323Z,107.70
2022-12-19T01:30:23.309Z,104.20
2022-12-19T01:31:23.334Z,105.30
2022-12-19T01:32:23.304Z,106.90
2022-12-19T01:33:23.282Z,102.60
2022-12-19T01:34:23.274Z,105.40
2022-12-19T01:35:23.266Z,99.80
2022-12-19T01:36:23.252Z,102.10
2022-12-19T01:37:23.255Z,110.50
2022-12-19T01:38:23.226Z,102.20
2022-12-19T01:39:23.226Z,102.30
2022-12-19T01:40:23.323Z,105.30
2022-12-19T01:41:23.545Z,110.10
2022-12-19T01:42:24.221Z,109.20
2022-12-19T01:43:23.185Z,104.60
2022-12-19T01:44:23.170Z,103.00
2022-12-19T01:45:23.167Z,104.50
2022-12-19T01:46:23.182Z,110.60
2022-12-19T01:47:23.157Z,109.80
2022-12-19T01:48:23.127Z,101.40
2022-12-19T01:49:25.137Z,100.10
2022-12-19T01:50:23.107Z,108.90
2022-12-19T01:51:23.118Z,107.50
2022-12-19T01:52:23.651Z,110.00
2022-12-19T01:53:23.088Z,104.40
2022-12-19T01:54:23.077Z,111.30
2022-12-19T01:55:23.078Z,111.50
2022-12-19T01:56:23.042Z,108.70
2022-12-19T01:57:23.038Z,109.10
2022-12-19T01:58:23.009Z,110.40
2022-12-19T01:59:23.001Z,112.20
2022-12-19T02:00:22.994Z,107.80
2022-12-19T02:01:23.046Z,113.40
2022-12-19T02:02:23.060Z,110.80
2022-12-19T02:03:23.011Z,110.10
2022-12-19T02:04:22.968Z,115.50
2022-12-19T02:05:22.954Z,114.20
2022-12-19T02:06:22.932Z,109.30
2022-12-19T02:07:22.939Z,109.30
2022-12-19T02:08:22.911Z,114.70
2022-12-19T02:09:22.902Z,115.20
2022-12-19T02:10:22.892Z,114.70
2022-12-19T02:11:22.883Z,119.20
2022-12-19T02:12:22.884Z,113.00
2022-12-19T02:13:22.863Z,112.00
2022-12-19T02:14:22.863Z,118.90
2022-12-19T02:15:22.844Z,113.50
2022-12-19T02:16:22.871Z,116.80
2022-12-19T02:17:22.843Z,114.70
2022-12-19T02:18:22.820Z,111.40
2022-12-19T02:19:22.816Z,113.00
2022-12-19T02:20:22.796Z,110.90
2022-12-19T02:21:22.793Z,115.50
2022-12-19T02:22:22.799Z,110.60
2022-12-19T02:23:22.778Z,111.00
2022-12-19T02:24:22.763Z,111.40
2022-12-19T02:25:22.758Z,112.30
2022-12-19T02:26:22.743Z,114.20
2022-12-19T02:27:22.752Z,110.30
2022-12-19T02:28:22.720Z,112.00
2022-12-19T02:29:22.722Z,112.50
2022-12-19T02:30:22.706Z,112.20
2022-12-19T02:31:22.750Z,111.00
2022-12-19T02:32:22.705Z,110.80
2022-12-19T02:33:22.679Z,113.60
2022-12-19T02:34:22.666Z,111.00
2022-12-19T02:35:22.668Z,111.70
2022-12-19T02:36:22.647Z,114.60
2022-12-19T02:37:22.658Z,104.60
2022-12-19T02:38:22.643Z,120.90
2022-12-19T02:39:22.633Z,104.90
2022-12-19T02:40:22.612Z,110.50
2022-12-19T02:41:22.623Z,112.00
2022-12-19T02:42:22.610Z,110.70
2022-12-19T02:43:22.592Z,114.20
2022-12-19T02:44:22.575Z,111.20
2022-12-19T02:45:28.450Z,108.60
2022-12-19T02:46:23.581Z,110.80
2022-12-19T02:47:22.565Z,105.20
2022-12-19T02:48:22.539Z,109.30
2022-12-19T02:49:30.671Z,111.40
2022-12-19T02:50:23.520Z,112.90
2022-12-19T02:51:22.519Z,112.60
2022-12-19T02:52:22.519Z,105.60
2022-12-19T02:53:23.884Z,111.60
2022-12-19T02:54:22.485Z,110.60
2022-12-19T02:55:22.475Z,108.60
2022-12-19T02:56:22.465Z,112.50
2022-12-19T02:57:22.475Z,108.30
2022-12-19T02:58:22.447Z,111.10
2022-12-19T02:59:22.447Z,112.20
2022-12-19T03:00:22.439Z,110.70
2022-12-19T03:01:22.517Z,101.90
2022-12-19T03:02:22.552Z,109.70
2022-12-19T03:03:22.422Z,109.80
2022-12-19T03:04:22.389Z,113.70
2022-12-19T03:05:22.388Z,117.20
2022-12-19T03:06:22.372Z,113.80
2022-12-19T03:07:22.380Z,111.20
2022-12-19T03:08:22.355Z,107.30
2022-12-19T03:09:22.363Z,113.50
2022-12-19T03:10:22.336Z,116.10
2022-12-19T03:11:22.323Z,116.10
2022-12-19T03:12:22.344Z,113.30
2022-12-19T03:13:22.307Z,116.70
2022-12-19T03:14:22.301Z,109.70
2022-12-19T03:15:22.315Z,113.30
2022-12-19T03:16:22.294Z,111.40
2022-12-19T03:17:22.285Z,110.10
2022-12-19T03:18:22.287Z,115.50
2022-12-19T03:19:22.252Z,115.00
2022-12-19T03:20:22.248Z,116.40
2022-12-19T03:21:22.231Z,108.60
2022-12-19T03:22:22.262Z,113.80
2022-12-19T03:23:22.210Z,114.30
2022-12-19T03:24:22.208Z,114.20
2022-12-19T03:25:22.194Z,113.60
2022-12-19T03:26:22.181Z,120.90
2022-12-19T03:27:22.202Z,114.70
2022-12-19T03:28:22.167Z,115.10
2022-12-19T03:29:22.153Z,112.10
2022-12-19T03:30:22.146Z,117.60
2022-12-19T03:31:22.183Z,119.40
2022-12-19T03:32:22.152Z,117.50
2022-12-19T03:33:22.114Z,113.50
2022-12-19T03:34:22.107Z,115.40
2022-12-19T03:35:22.094Z,112.40
2022-12-19T03:36:22.086Z,118.90
2022-12-19T03:37:22.097Z,109.00
2022-12-19T03:38:22.076Z,111.40
2022-12-19T03:39:22.065Z,114.20
2022-12-19T03:40:22.059Z,112.60
2022-12-19T03:41:22.048Z,115.60
2022-12-19T03:42:22.057Z,114.80
2022-12-19T03:43:22.020Z,109.60
2022-12-19T03:44:22.018Z,114.60
2022-12-19T03:45:22.001Z,105.80
2022-12-19T03:46:22.033Z,117.00
2022-12-19T03:47:21.992Z,112.60
2022-12-19T03:48:21.983Z,110.70
2022-12-19T03:49:21.963Z,107.00
2022-12-19T03:50:21.962Z,105.60
2022-12-19T03:51:21.952Z,106.90
2022-12-19T03:52:21.954Z,101.60
2022-12-19T03:53:21.927Z,105.70
2022-12-19T03:54:21.924Z,100.40
2022-12-19T03:55:21.925Z,105.80
2022-12-19T03:56:21.914Z,112.80
2022-12-19T03:57:21.904Z,106.80
2022-12-19T03:58:21.877Z,106.10
2022-12-19T03:59:21.866Z,105.40
2022-12-19T04:00:21.865Z,104.50
2022-12-19T04:01:21.931Z,102.70
2022-12-19T04:02:22.011Z,109.90
2022-12-19T04:03:21.836Z,111.20
2022-12-19T04:04:21.841Z,106.20
2022-12-19T04:05:21.816Z,107.70
2022-12-19T04:06:21.801Z,106.90
2022-12-19T04:07:21.789Z,110.10
2022-12-19T04:08:21.798Z,108.40
2022-12-19T04:09:22.704Z,109.10
2022-12-19T04:10:21.767Z,106.00
2022-12-19T04:11:21.765Z,108.00
2022-12-19T04:12:21.751Z,104.10
2022-12-19T04:13:21.751Z,107.60
2022-12-19T04:14:21.733Z,110.90
2022-12-19T04:15:21.726Z,99.70
2022-12-19T04:16:21.753Z,101.70
2022-12-19T04:17:21.692Z,105.10
2022-12-19T04:18:21.705Z,101.90
2022-12-19T04:19:21.673Z,106.80
2022-12-19T04:20:21.676Z,102.30
2022-12-19T04:21:21.658Z,98.80
2022-12-19T04:22:21.664Z,106.40
2022-12-19T04:23:21.654Z,106.70
2022-12-19T04:24:21.639Z,106.90
2022-12-19T04:25:26.289Z,105.20
2022-12-19T04:26:22.605Z,104.10
2022-12-19T04:27:21.594Z,103.70
2022-12-19T04:28:21.619Z,100.30
2022-12-19T04:29:21.600Z,102.80
2022-12-19T04:30:21.582Z,102.70
2022-12-19T04:31:21.658Z,105.20
2022-12-19T04:32:21.546Z,101.90
2022-12-19T04:33:21.566Z,102.20
2022-12-19T04:34:21.556Z,97.10
2022-12-19T04:35:21.519Z,94.30
2022-12-19T04:36:21.529Z,100.40
2022-12-19T04:37:21.497Z,98.70
2022-12-19T04:38:21.510Z,103.00
2022-12-19T04:39:21.480Z,102.40
2022-12-19T04:40:21.466Z,102.80
2022-12-19T04:41:21.474Z,102.40
2022-12-19T04:42:21.454Z,103.20
2022-12-19T04:43:21.465Z,99.30
2022-12-19T04:44:21.437Z,93.80
2022-12-19T04:45:21.421Z,105.70
2022-12-19T04:46:21.450Z,98.20
2022-12-19T04:47:21.398Z,97.00
2022-12-19T04:48:21.407Z,94.10
2022-12-19T04:49:21.394Z,97.00
2022-12-19T04:50:21.378Z,100.80
2022-12-19T04:51:21.370Z,99.80
2022-12-19T04:52:21.380Z,98.00
2022-12-19T04:53:22.079Z,88.80
2022-12-19T04:54:21.359Z,102.10
2022-12-19T04:55:21.322Z,95.40
2022-12-19T04:56:21.315Z,98.00
2022-12-19T04:57:21.315Z,93.90
2022-12-19T04:58:22.140Z,94.30
2022-12-19T04:59:21.294Z,94.00
2022-12-19T05:00:21.281Z,102.40
2022-12-19T05:01:21.354Z,97.50
2022-12-19T05:02:21.345Z,96.70
2022-12-19T05:03:21.293Z,97.20
2022-12-19T05:04:21.312Z,97.10
2022-12-19T05:05:21.223Z,93.50
2022-12-19T05:06:21.221Z,96.70
2022-12-19T05:07:21.218Z,98.50
2022-12-19T05:08:21.243Z,93.20
2022-12-19T05:09:21.201Z,97.10
2022-12-19T05:10:21.182Z,97.00
2022-12-19T05:11:21.173Z,98.70
2022-12-19T05:12:21.185Z,96.10
2022-12-19T05:13:21.175Z,92.70
2022-12-19T05:14:21.151Z,96.80
2022-12-19T05:15:21.141Z,99.40
2022-12-19T05:16:21.151Z,96.70
2022-12-19T05:17:21.105Z,99.30
2022-12-19T05:18:21.121Z,98.80
2022-12-19T05:19:21.121Z,102.80
2022-12-19T05:20:21.084Z,95.20
2022-12-19T05:21:21.072Z,91.80
2022-12-19T05:22:21.064Z,98.90
2022-12-19T05:23:21.074Z,97.70
2022-12-19T05:24:21.042Z,96.70
2022-12-19T05:25:21.028Z,93.20
2022-12-19T05:26:21.051Z,96.60
2022-12-19T05:27:21.016Z,92.80
2022-12-19T05:28:20.996Z,97.50
2022-12-19T05:29:21.003Z,100.20
2022-12-19T05:30:20.995Z,105.40
2022-12-19T05:31:20.995Z,101.70
2022-12-19T05:32:20.964Z,99.40
2022-12-19T05:33:20.945Z,101.80
2022-12-19T05:34:20.955Z,91.40
2022-12-19T05:35:20.925Z,98.70
2022-12-19T05:36:20.916Z,103.40
2022-12-19T05:37:20.905Z,98.60
2022-12-19T05:38:20.906Z,101.10
2022-12-19T05:39:20.916Z,99.90
2022-12-19T05:40:20.888Z,102.60
2022-12-19T05:41:20.865Z,95.10
2022-12-19T05:42:20.880Z,103.90
2022-12-19T05:43:20.847Z,106.70
2022-12-19T05:44:20.857Z,102.30
2022-12-19T05:45:20.836Z,103.70
2022-12-19T05:46:20.873Z,100.30
2022-12-19T05:47:20.816Z,104.20
2022-12-19T05:48:20.812Z,109.00
2022-12-19T05:49:20.811Z,102.10
2022-12-19T05:50:20.789Z,99.60
2022-12-19T05:51:20.769Z,104.00
2022-12-19T05:52:20.766Z,107.00
2022-12-19T05:53:25.822Z,109.90
2022-12-19T05:54:21.766Z,111.00
2022-12-19T05:55:20.764Z,108.90
2022-12-19T05:56:20.732Z,104.50
2022-12-19T05:57:20.713Z,105.80
2022-12-19T05:58:20.706Z,103.30
2022-12-19T05:59:20.716Z,105.90
2022-12-19T06:00:20.699Z,111.60
2022-12-19T06:01:20.741Z,107.50
2022-12-19T06:02:20.790Z,113.40
2022-12-19T06:03:20.723Z,118.30
2022-12-19T06:04:20.677Z,120.40
2022-12-19T06:05:20.632Z,115.20
2022-12-19T06:06:20.637Z,110.70
2022-12-19T06:07:21.241Z,114.30
2022-12-19T06:08:20.601Z,116.10
2022-12-19T06:09:20.614Z,119.30
2022-12-19T06:10:20.593Z,110.90
2022-12-19T06:11:20.587Z,111.00
2022-12-19T06:12:20.570Z,120.10
2022-12-19T06:13:24.927Z,114.00
2022-12-19T06:14:20.566Z,112.30
2022-12-19T06:15:20.531Z,114.50
2022-12-19T06:16:20.570Z,125.30
2022-12-19T06:17:20.512Z,112.10
2022-12-19T06:18:20.505Z,110.60
2022-12-19T06:19:20.511Z,109.20
2022-12-19T06:20:20.509Z,115.10
2022-12-19T06:21:20.482Z,121.30
2022-12-19T06:22:20.471Z,118.30
2022-12-19T06:23:20.451Z,116.30
2022-12-19T06:24:20.462Z,117.00
2022-12-19T06:25:20.442Z,110.80
2022-12-19T06:26:20.618Z,118.70
2022-12-19T06:27:20.411Z,117.40
2022-12-19T06:28:20.417Z,125.50
2022-12-19T06:29:20.413Z,123.50
2022-12-19T06:30:20.397Z,116.70
2022-12-19T06:31:20.464Z,117.90
2022-12-19T06:32:20.373Z,124.70
2022-12-19T06:33:20.365Z,128.40
2022-12-19T06:34:46.913Z,130.60
2022-12-19T06:35:21.340Z,123.60
2022-12-19T06:36:20.323Z,132.50
2022-12-19T06:37:20.317Z,129.00
2022-12-19T06:38:20.311Z,118.50
2022-12-19T06:39:20.320Z,126.60
2022-12-19T06:40:20.300Z,123.40
2022-12-19T06:41:20.282Z,119.00
2022-12-19T06:42:20.283Z,129.10
2022-12-19T06:43:20.255Z,122.50
2022-12-19T06:44:20.275Z,120.50
2022-12-19T06:45:20.234Z,118.00
2022-12-19T06:46:20.276Z,115.80
2022-12-19T06:47:20.217Z,117.80
2022-12-19T06:48:20.213Z,122.40
2022-12-19T06:49:20.237Z,118.60
2022-12-19T06:50:20.193Z,116.60
2022-12-19T06:51:20.176Z,118.20
2022-12-19T06:52:20.189Z,120.50
2022-12-19T06:53:20.155Z,113.20
2022-12-19T06:54:20.177Z,115.00
2022-12-19T06:55:20.138Z,115.60
2022-12-19T06:56:20.159Z,119.80
2022-12-19T06:57:20.118Z,113.90
2022-12-19T06:58:24.103Z,111.90
2022-12-19T06:59:20.116Z,107.50
2022-12-19T07:00:20.096Z,115.50
2022-12-19T07:01:20.231Z,108.70
2022-12-19T07:02:20.179Z,107.90
2022-12-19T07:03:20.059Z,109.50
2022-12-19T07:04:20.068Z,111.80
2022-12-19T07:05:20.046Z,110.60
2022-12-19T07:06:20.050Z,103.20
2022-12-19T07:07:20.029Z,105.40
2022-12-19T07:08:20.015Z,106.60
2022-12-19T07:09:20.021Z,107.50
2022-12-19T07:10:20.038Z,106.00
2022-12-19T07:11:19.979Z,105.30
2022-12-19T07:12:19.929Z,106.20
2022-12-19T07:13:19.905Z,108.10
2022-12-19T07:14:19.918Z,105.80
2022-12-19T07:15:19.887Z,105.60
2022-12-19T07:16:19.896Z,104.20
2022-12-19T07:17:19.924Z,97.90
2022-12-19T07:18:19.920Z,100.40
2022-12-19T07:19:19.927Z,101.20
2022-12-19T07:20:19.892Z,102.20
2022-12-19T07:21:19.840Z,102.60
2022-12-19T07:22:19.823Z,100.50
2022-12-19T07:23:19.814Z,103.00
2022-12-19T07:24:19.818Z,98.10
2022-12-19T07:25:19.791Z,101.30
2022-12-19T07:26:19.798Z,99.10
2022-12-19T07:27:19.785Z,103.90
2022-12-19T07:28:19.780Z,101.90
2022-12-19T07:29:19.769Z,99.10
2022-12-19T07:30:19.743Z,102.70
2022-12-19T07:31:19.797Z,105.60
2022-12-19T07:32:19.728Z,94.60
2022-12-19T07:33:21.685Z,97.30
2022-12-19T07:34:19.720Z,104.20
2022-12-19T07:35:19.702Z,94.90
2022-12-19T07:36:19.685Z,101.20
2022-12-19T07:37:19.674Z,93.70
2022-12-19T07:38:19.665Z,94.90
2022-12-19T07:39:19.681Z,101.90
2022-12-19T07:40:19.637Z,99.90
2022-12-19T07:41:19.654Z,100.00
2022-12-19T07:42:19.629Z,96.00
2022-12-19T07:43:19.618Z,97.20
2022-12-19T07:44:19.627Z,99.70
2022-12-19T07:45:19.596Z,101.90
2022-12-19T07:46:19.598Z,103.40
2022-12-19T07:47:19.574Z,108.20
2022-12-19T07:48:19.556Z,103.50
2022-12-19T07:49:22.656Z,98.20
2022-12-19T07:50:19.542Z,105.50
2022-12-19T07:51:19.537Z,110.30
2022-12-19T07:52:19.518Z,104.90
2022-12-19T07:53:19.552Z,111.20
2022-12-19T07:54:19.528Z,117.90
2022-12-19T07:55:19.516Z,110.40
2022-12-19T07:56:19.486Z,109.90
2022-12-19T07:57:19.477Z,110.50
2022-12-19T07:58:19.469Z,111.30
2022-12-19T07:59:21.390Z,111.40
2022-12-19T08:00:20.441Z,111.40
2022-12-19T08:01:19.551Z,104.50
2022-12-19T08:02:19.446Z,111.10
2022-12-19T08:03:19.483Z,111.90
2022-12-19T08:04:19.428Z,117.20
2022-12-19T08:05:19.421Z,116.20
2022-12-19T08:06:19.390Z,120.00
2022-12-19T08:07:19.379Z,117.60
2022-12-19T08:08:19.388Z,121.90
2022-12-19T08:09:19.376Z,125.10
2022-12-19T08:10:19.366Z,118.20
2022-12-19T08:11:19.348Z,110.50
2022-12-19T08:12:19.337Z,116.00
2022-12-19T08:13:19.330Z,110.40
2022-12-19T08:14:19.324Z,113.50
2022-12-19T08:15:19.303Z,112.40
2022-12-19T08:16:19.293Z,113.30
2022-12-19T08:17:20.944Z,112.30
2022-12-19T08:18:19.273Z,109.40
2022-12-19T08:19:23.399Z,105.50
2022-12-19T08:20:20.257Z,106.00
2022-12-19T08:21:19.243Z,111.30
2022-12-19T08:22:19.231Z,105.00
2022-12-19T08:23:19.226Z,109.90
2022-12-19T08:24:19.225Z,107.60
2022-12-19T08:25:19.204Z,108.60
2022-12-19T08:26:19.203Z,109.80
2022-12-19T08:27:19.184Z,109.80
2022-12-19T08:28:19.176Z,105.20
2022-12-19T08:29:19.174Z,108.50
2022-12-19T08:30:19.154Z,103.00
2022-12-19T08:31:19.193Z,108.60
2022-12-19T08:32:21.502Z,106.00
2022-12-19T08:33:19.117Z,106.30
2022-12-19T08:34:19.116Z,104.90
2022-12-19T08:35:19.122Z,100.20
2022-12-19T08:36:19.116Z,113.90
2022-12-19T08:37:19.094Z,109.90
2022-12-19T08:38:19.076Z,105.40
2022-12-19T08:39:19.085Z,107.60
2022-12-19T08:40:19.084Z,105.10
2022-12-19T08:41:19.054Z,108.60
2022-12-19T08:42:19.052Z,105.90
2022-12-19T08:43:19.027Z,109.50
2022-12-19T08:44:19.029Z,98.50
2022-12-19T08:45:19.026Z,99.20
2022-12-19T08:46:19.060Z,100.00
2022-12-19T08:47:18.987Z,100.10
2022-12-19T08:48:18.978Z,100.90
2022-12-19T08:49:18.969Z,103.00
2022-12-19T08:50:18.974Z,101.80
2022-12-19T08:51:18.949Z,100.30
2022-12-19T08:52:18.932Z,107.50
2022-12-19T08:53:24.278Z,107.20
2022-12-19T08:54:19.940Z,100.50
2022-12-19T08:55:18.932Z,102.60
2022-12-19T08:56:18.995Z,100.50
2022-12-19T08:57:18.896Z,101.10
2022-12-19T08:58:18.878Z,92.90
2022-12-19T08:59:30.288Z,98.10
2022-12-19T09:00:19.877Z,107.40
2022-12-19T09:01:18.969Z,99.70
2022-12-19T09:02:18.980Z,92.50
2022-12-19T09:03:19.050Z,105.50
2022-12-19T09:06:01.675Z,97.60
2022-12-19T09:06:04.008Z,102.60
2022-12-19T09:06:19.935Z,103.40
2022-12-19T09:07:18.807Z,97.70
2022-12-19T09:08:18.789Z,98.80
2022-12-19T09:09:18.773Z,100.00
2022-12-19T09:10:18.766Z,93.50
2022-12-19T09:11:18.767Z,101.10
2022-12-19T09:12:18.744Z,93.10
2022-12-19T09:13:18.737Z,97.00
2022-12-19T09:14:21.146Z,97.70
2022-12-19T09:15:18.727Z,105.00
2022-12-19T09:16:18.752Z,89.90
2022-12-19T09:17:18.712Z,92.80
2022-12-19T09:18:18.682Z,92.40
2022-12-19T09:19:18.665Z,96.80
2022-12-19T09:20:23.242Z,96.60
2022-12-19T09:21:19.656Z,92.00
2022-12-19T09:22:18.636Z,96.70
2022-12-19T09:23:18.629Z,96.80
2022-12-19T09:24:18.618Z,93.30
2022-12-19T09:25:18.630Z,94.50
2022-12-19T09:26:18.599Z,97.50
2022-12-19T09:27:18.654Z,101.20
2022-12-19T09:28:27.309Z,97.60
2022-12-19T09:29:21.536Z,100.50
2022-12-19T09:30:18.648Z,99.50
2022-12-19T09:31:18.654Z,99.70
2022-12-19T09:32:18.536Z,99.20
2022-12-19T09:33:18.530Z,98.60
2022-12-19T09:34:18.521Z,94.80
2022-12-19T09:35:18.547Z,101.60
2022-12-19T09:36:18.502Z,96.70
2022-12-19T09:37:18.490Z,96.60
2022-12-19T09:38:18.487Z,100.80
2022-12-19T09:39:18.492Z,92.50
2022-12-19T09:40:18.476Z,95.20
2022-12-19T09:41:18.453Z,97.40
2022-12-19T09:42:18.432Z,103.30
2022-12-19T09:43:18.444Z,106.80
2022-12-19T09:44:18.418Z,95.70
2022-12-19T09:45:31.141Z,97.30
2022-12-19T09:46:19.467Z,95.50
2022-12-19T09:47:18.403Z,98.00
2022-12-19T09:48:23.629Z,97.10
2022-12-19T09:49:19.384Z,99.20
2022-12-19T09:50:18.379Z,96.80
2022-12-19T09:51:18.365Z,95.50
2022-12-19T09:52:18.337Z,94.80
2022-12-19T09:53:18.326Z,99.90
2022-12-19T09:54:18.319Z,96.50
2022-12-19T09:55:18.327Z,105.80
2022-12-19T09:56:18.334Z,102.50
2022-12-19T09:57:18.298Z,99.70
2022-12-19T09:58:18.278Z,93.20
2022-12-19T09:59:18.271Z,99.90
2022-12-19T10:00:18.275Z,88.30
2022-12-19T10:01:18.382Z,90.80
2022-12-19T10:02:18.371Z,92.80
2022-12-19T10:03:18.367Z,96.30
2022-12-19T10:04:18.217Z,93.40
2022-12-19T10:05:30.461Z,100.00
2022-12-19T10:07:11.922Z,98.10
2022-12-19T10:07:53.021Z,89.30
2022-12-19T10:08:19.179Z,91.90
2022-12-19T10:11:49.364Z,91.40
2022-12-19T10:12:38.266Z,96.40
2022-12-19T10:12:40.990Z,98.20
2022-12-19T10:12:44.328Z,94.60
2022-12-19T10:13:19.143Z,104.30
2022-12-19T10:14:18.121Z,89.80
2022-12-19T10:15:18.133Z,87.80
2022-12-19T10:16:18.142Z,93.10
2022-12-19T10:17:25.614Z,90.80
2022-12-19T10:18:19.073Z,93.90
2022-12-19T10:19:18.083Z,100.30
2022-12-19T10:20:18.072Z,96.00
2022-12-19T10:21:18.057Z,92.40
2022-12-19T10:22:19.182Z,92.20
2022-12-19T10:23:18.045Z,93.00
2022-12-19T10:24:18.016Z,97.90
2022-12-19T10:25:18.034Z,96.70
2022-12-19T10:26:18.051Z,97.90
2022-12-19T10:27:18.022Z,100.40
2022-12-19T10:28:17.996Z,100.90
2022-12-19T10:29:17.992Z,87.60
2022-12-19T10:30:17.976Z,89.00
2022-12-19T10:31:21.871Z,93.40
2022-12-19T10:32:18.056Z,95.60
2022-12-19T10:33:20.490Z,87.70
2022-12-19T10:34:17.914Z,92.00
2022-12-19T10:35:17.955Z,93.60
2022-12-19T10:36:17.898Z,93.30
2022-12-19T10:37:27.323Z,89.50
2022-12-19T10:38:18.926Z,97.30
2022-12-19T10:39:17.888Z,91.70
2022-12-19T10:40:27.665Z,88.90
2022-12-19T10:41:18.848Z,84.60
2022-12-19T10:42:17.866Z,87.00
2022-12-19T10:43:27.279Z,93.30
2022-12-19T10:44:18.819Z,90.10
2022-12-19T10:45:17.849Z,93.80
2022-12-19T10:46:17.841Z,86.20
2022-12-19T10:47:17.801Z,91.50
2022-12-19T10:48:17.833Z,93.10
2022-12-19T10:49:17.767Z,93.70
2022-12-19T10:50:17.899Z,97.00
2022-12-19T10:51:17.760Z,98.40
2022-12-19T10:52:17.732Z,92.90
2022-12-19T10:53:17.743Z,89.50
2022-12-19T10:54:17.748Z,93.00
2022-12-19T10:55:17.731Z,99.00
2022-12-19T10:56:17.693Z,93.60
2022-12-19T10:57:17.736Z,93.80
2022-12-19T10:58:17.684Z,90.00
2022-12-19T10:59:17.742Z,89.90
2022-12-19T11:00:17.817Z,90.20
2022-12-19T11:01:17.894Z,84.70
2022-12-19T11:02:17.730Z,96.10
2022-12-19T11:03:19.126Z,94.00
2022-12-19T11:04:17.626Z,87.20
2022-12-19T11:05:17.674Z,95.60
2022-12-19T11:06:17.604Z,94.30
2022-12-19T11:07:17.595Z,91.80
2022-12-19T11:08:17.624Z,96.60
2022-12-19T11:09:17.586Z,96.40
2022-12-19T11:11:22.954Z,87.60
2022-12-19T11:12:39.570Z,88.80
2022-12-19T11:15:44.747Z,92.90
2022-12-19T11:17:36.200Z,101.40
2022-12-19T11:18:48.954Z,97.10
2022-12-19T11:20:30.689Z,98.20
2022-12-19T11:21:28.341Z,99.30
2022-12-19T11:25:54.852Z,93.00
2022-12-19T11:27:34.426Z,97.00
2022-12-19T11:29:18.088Z,90.40
2022-12-19T11:29:19.365Z,94.60
2022-12-19T11:29:44.348Z,96.30
2022-12-19T11:30:06.371Z,92.60
2022-12-19T11:30:07.047Z,86.90
2022-12-19T11:30:07.051Z,95.20
2022-12-19T11:30:21.352Z,93.90
2022-12-19T11:30:35.207Z,102.80
2022-12-19T11:30:38.845Z,97.90
2022-12-19T11:30:42.998Z,97.70
2022-12-19T11:31:28.070Z,98.70
2022-12-19T11:32:39.538Z,103.00
2022-12-19T11:33:18.574Z,98.60
2022-12-19T11:34:17.322Z,101.70
2022-12-19T11:35:17.341Z,95.30
2022-12-19T11:36:17.324Z,98.20
2022-12-19T11:37:17.316Z,99.50
2022-12-19T11:38:17.290Z,101.30
2022-12-19T11:39:17.282Z,95.80
2022-12-19T11:40:17.262Z,100.50
2022-12-19T11:41:17.273Z,94.70
2022-12-19T11:42:17.256Z,96.00
2022-12-19T11:43:47.291Z,92.60
2022-12-19T11:44:18.224Z,94.30
2022-12-19T11:45:17.223Z,94.80
2022-12-19T11:46:21.749Z,99.50
2022-12-19T11:47:18.195Z,97.00
2022-12-19T11:48:17.207Z,96.70
2022-12-19T11:49:17.176Z,99.50
2022-12-19T11:50:17.176Z,93.10
2022-12-19T11:51:17.183Z,95.80
2022-12-19T11:52:54.156Z,94.50
2022-12-19T11:53:19.378Z,95.40
2022-12-19T11:54:17.137Z,96.40
2022-12-19T11:55:17.124Z,99.00
2022-12-19T11:56:17.126Z,93.90
2022-12-19T11:57:17.093Z,93.30
2022-12-19T11:58:17.087Z,90.90
2022-12-19T11:59:17.076Z,92.40
2022-12-19T12:00:17.082Z,92.00
2022-12-19T12:01:17.146Z,93.30
2022-12-19T12:02:17.069Z,91.00
2022-12-19T12:03:17.152Z,97.10
2022-12-19T12:04:17.201Z,95.40
2022-12-19T12:05:17.166Z,92.40
2022-12-19T12:06:17.053Z,90.70
2022-12-19T12:07:32.502Z,95.80
2022-12-19T12:09:09.506Z,89.60
2022-12-19T12:13:39.375Z,94.90
2022-12-19T12:14:14.605Z,90.40
2022-12-19T12:16:55.023Z,90.30
2022-12-19T12:17:34.081Z,89.20
2022-12-19T12:22:14.678Z,94.90
2022-12-19T12:25:16.003Z,100.00
2022-12-19T12:26:04.675Z,99.40
2022-12-19T12:27:52.527Z,96.10
2022-12-19T12:29:46.913Z,90.40
2022-12-19T12:31:09.471Z,88.90
2022-12-19T12:31:11.208Z,85.90
2022-12-19T12:31:13.893Z,92.80
2022-12-19T12:31:15.240Z,98.70
2022-12-19T12:31:18.535Z,88.40
2022-12-19T12:31:19.469Z,86.80
2022-12-19T12:31:29.547Z,91.60
2022-12-19T12:31:41.204Z,92.60
2022-12-19T12:31:44.603Z,80.90
2022-12-19T12:31:51.155Z,86.10
2022-12-19T12:31:53.909Z,93.70
2022-12-19T12:32:00.369Z,88.20
2022-12-19T12:35:07.037Z,84.70
2022-12-19T12:35:14.545Z,82.50
2022-12-19T12:35:52.362Z,91.70
2022-12-19T12:35:54.319Z,88.30
2022-12-19T12:37:08.171Z,86.70
2022-12-19T12:37:49.508Z,84.50
2022-12-19T12:37:54.075Z,84.10
2022-12-19T12:38:26.998Z,88.10
2022-12-19T12:39:22.755Z,85.30
2022-12-19T12:40:24.037Z,80.70
2022-12-19T12:41:17.678Z,91.00